createdAt,value
2022-11-15T00:00:55.477Z,95991
2022-11-15T00:01:55.499Z,95988
2022-11-15T00:02:55.452Z,95992
2022-11-15T00:03:55.459Z,95987
2022-11-15T00:04:55.445Z,95987
2022-11-15T00:05:55.418Z,95984
2022-11-15T00:06:55.581Z,95983
2022-11-15T00:07:56.322Z,95978
2022-11-15T00:08:55.480Z,95978
2022-11-15T00:09:55.472Z,95975
2022-11-15T00:10:55.468Z,95971
2022-11-15T00:11:55.475Z,95975
2022-11-15T00:12:55.454Z,95977
2022-11-15T00:14:55.467Z,95979
2022-11-15T00:15:55.472Z,95979
2022-11-15T00:16:55.507Z,95986
2022-11-15T00:17:55.471Z,95986
2022-11-15T00:18:55.500Z,95984
2022-11-15T00:19:55.457Z,95984
2022-11-15T00:20:55.479Z,95980
2022-11-15T00:21:55.524Z,95979
2022-11-15T00:23:55.467Z,95981
2022-11-15T00:24:55.551Z,95981
2022-11-15T00:25:55.511Z,95981
2022-11-15T00:26:55.537Z,95972
2022-11-15T00:27:55.488Z,95972
2022-11-15T00:28:55.481Z,95972
2022-11-15T00:29:55.528Z,95965
2022-11-15T00:30:56.773Z,95966
2022-11-15T00:31:55.507Z,95966
2022-11-15T00:32:55.524Z,95963
2022-11-15T00:33:55.514Z,95963
2022-11-15T00:34:55.540Z,95962
2022-11-15T00:35:55.509Z,95962
2022-11-15T00:36:55.564Z,95960
2022-11-15T00:37:55.508Z,95960
2022-11-15T00:39:55.548Z,95961
2022-11-15T00:40:55.546Z,95963
2022-11-15T00:41:55.522Z,95963
2022-11-15T00:42:55.522Z,95960
2022-11-15T00:43:55.533Z,95960
2022-11-15T00:44:55.573Z,95956
2022-11-15T00:45:55.516Z,95956
2022-11-15T00:46:55.553Z,95959
2022-11-15T00:47:55.564Z,95957
2022-11-15T00:48:55.540Z,95957
2022-11-15T00:49:55.572Z,95963
2022-11-15T00:51:55.560Z,95961
2022-11-15T00:52:55.540Z,95961
2022-11-15T00:53:55.564Z,95960
2022-11-15T00:55:55.574Z,95966
2022-11-15T00:56:55.570Z,95966
2022-11-15T00:57:55.576Z,95969
2022-11-15T00:58:55.585Z,95972
2022-11-15T00:59:55.581Z,95974
2022-11-15T01:00:55.655Z,95974
2022-11-15T01:01:55.563Z,95975
2022-11-15T01:02:55.633Z,95969
2022-11-15T01:04:00.909Z,95973
2022-11-15T01:05:55.609Z,95971
2022-11-15T01:06:55.644Z,95971
2022-11-15T01:07:55.631Z,95972
2022-11-15T01:08:55.607Z,95972
2022-11-15T01:09:55.598Z,95967
2022-11-15T01:10:55.584Z,95968
2022-11-15T01:11:55.607Z,95963
2022-11-15T01:12:55.638Z,95963
2022-11-15T01:13:55.592Z,95962
2022-11-15T01:14:55.602Z,95966
2022-11-15T01:15:55.634Z,95965
2022-11-15T01:16:55.604Z,95967
2022-11-15T01:17:55.632Z,95962
2022-11-15T01:18:55.625Z,95962
2022-11-15T01:19:55.627Z,95960
2022-11-15T01:20:55.663Z,95961
2022-11-15T01:21:55.615Z,95954
2022-11-15T01:22:55.630Z,95952
2022-11-15T01:23:55.633Z,95952
2022-11-15T01:24:55.616Z,95944
2022-11-15T01:25:55.667Z,95943
2022-11-15T01:26:55.632Z,95943
2022-11-15T01:27:55.642Z,95938
2022-11-15T01:28:55.624Z,95933
2022-11-15T01:29:55.633Z,95931
2022-11-15T01:30:55.620Z,95927
2022-11-15T01:31:55.659Z,95925
2022-11-15T01:32:55.649Z,95923
2022-11-15T01:33:55.691Z,95925
2022-11-15T01:34:55.657Z,95925
2022-11-15T01:35:55.685Z,95927
2022-11-15T01:36:55.681Z,95923
2022-11-15T01:37:55.669Z,95923
2022-11-15T01:38:55.701Z,95918
2022-11-15T01:39:55.669Z,95915
2022-11-15T01:40:55.714Z,95915
2022-11-15T01:41:55.673Z,95911
2022-11-15T01:42:55.668Z,95908
2022-11-15T01:43:55.740Z,95899
2022-11-15T01:44:55.698Z,95896
2022-11-15T01:45:55.676Z,95896
2022-11-15T01:46:55.698Z,95896
2022-11-15T01:47:55.699Z,95897
2022-11-15T01:49:55.708Z,95894
2022-11-15T01:50:55.746Z,95893
2022-11-15T01:51:55.692Z,95893
2022-11-15T01:52:55.701Z,95892
2022-11-15T01:53:55.716Z,95892
2022-11-15T01:54:55.701Z,95892
2022-11-15T01:55:55.707Z,95895
2022-11-15T01:56:55.726Z,95894
2022-11-15T01:57:55.701Z,95894
2022-11-15T01:58:55.773Z,95892
2022-11-15T01:59:55.715Z,95892
2022-11-15T02:00:55.833Z,95889
2022-11-15T02:01:55.766Z,95886
2022-11-15T02:02:55.735Z,95888
2022-11-15T02:03:55.756Z,95888
2022-11-15T02:05:55.713Z,95887
2022-11-15T02:06:55.845Z,95886
2022-11-15T02:07:55.740Z,95888
2022-11-15T02:08:55.779Z,95888
2022-11-15T02:12:55.765Z,95886
2022-11-15T02:14:55.764Z,95881
2022-11-15T02:17:55.781Z,95877
2022-11-15T02:18:55.766Z,95881
2022-11-15T02:19:55.771Z,95881
2022-11-15T02:20:55.802Z,95880
2022-11-15T02:21:55.771Z,95880
2022-11-15T02:22:55.777Z,95883
2022-11-15T02:23:55.758Z,95882
2022-11-15T02:24:55.828Z,95881
2022-11-15T02:26:55.810Z,95879
2022-11-15T02:27:55.792Z,95879
2022-11-15T02:28:55.787Z,95882
2022-11-15T02:29:55.831Z,95880
2022-11-15T02:30:55.788Z,95881
2022-11-15T02:31:55.794Z,95879
2022-11-15T02:32:55.785Z,95879
2022-11-15T02:33:55.786Z,95876
2022-11-15T02:34:55.805Z,95877
2022-11-15T02:35:55.802Z,95873
2022-11-15T02:36:55.817Z,95874
2022-11-15T02:37:55.794Z,95874
2022-11-15T02:38:55.804Z,95869
2022-11-15T02:40:55.817Z,95868
2022-11-15T02:41:55.836Z,95863
2022-11-15T02:42:55.868Z,95859
2022-11-15T02:43:55.823Z,95859
2022-11-15T02:44:55.872Z,95845
2022-11-15T02:45:55.889Z,95848
2022-11-15T02:46:55.846Z,95848
2022-11-15T02:47:55.879Z,95846
2022-11-15T02:48:55.867Z,95847
2022-11-15T02:49:55.862Z,95848
2022-11-15T02:50:55.831Z,95848
2022-11-15T02:51:55.863Z,95847
2022-11-15T02:52:55.872Z,95847
2022-11-15T02:53:55.847Z,95846
2022-11-15T02:54:55.851Z,95847
2022-11-15T02:55:55.865Z,95847
2022-11-15T02:56:55.888Z,95844
2022-11-15T02:57:55.908Z,95843
2022-11-15T02:59:55.895Z,95836
2022-11-15T03:00:55.959Z,95834
2022-11-15T03:01:55.855Z,95834
2022-11-15T03:02:55.902Z,95834
2022-11-15T03:03:55.875Z,95834
2022-11-15T03:04:55.862Z,95830
2022-11-15T03:05:55.866Z,95830
2022-11-15T03:06:55.982Z,95835
2022-11-15T03:08:01.875Z,95836
2022-11-15T03:09:55.934Z,95838
2022-11-15T03:10:55.930Z,95834
2022-11-15T03:12:55.912Z,95831
2022-11-15T03:13:55.912Z,95834
2022-11-15T03:14:55.890Z,95833
2022-11-15T03:15:55.903Z,95832
2022-11-15T03:16:55.929Z,95832
2022-11-15T03:17:55.895Z,95834
2022-11-15T03:18:55.942Z,95831
2022-11-15T03:19:55.905Z,95831
2022-11-15T03:20:55.922Z,95829
2022-11-15T03:21:55.941Z,95829
2022-11-15T03:22:55.941Z,95827
2022-11-15T03:24:55.954Z,95824
2022-11-15T03:25:55.947Z,95824
2022-11-15T03:26:55.933Z,95824
2022-11-15T03:27:55.946Z,95826
2022-11-15T03:28:55.990Z,95828
2022-11-15T03:29:55.919Z,95828
2022-11-15T03:32:55.953Z,95831
2022-11-15T03:33:55.992Z,95826
2022-11-15T03:35:55.977Z,95822
2022-11-15T03:36:55.974Z,95822
2022-11-15T03:37:56.004Z,95818
2022-11-15T03:38:55.974Z,95817
2022-11-15T03:39:55.988Z,95815
2022-11-15T03:40:55.990Z,95816
2022-11-15T03:42:55.943Z,95812
2022-11-15T03:43:56.010Z,95813
2022-11-15T03:44:55.982Z,95815
2022-11-15T03:46:56.038Z,95817
2022-11-15T03:48:56.001Z,95822
2022-11-15T03:49:56.004Z,95819
2022-11-15T03:50:55.981Z,95819
2022-11-15T03:51:55.975Z,95818
2022-11-15T03:52:56.029Z,95825
2022-11-15T03:54:56.028Z,95822
2022-11-15T03:55:56.002Z,95822
2022-11-15T03:56:56.004Z,95821
2022-11-15T03:57:56.049Z,95825
2022-11-15T03:59:56.027Z,95829
2022-11-15T04:00:56.062Z,95826
2022-11-15T04:01:56.045Z,95827
2022-11-15T04:02:56.033Z,95824
2022-11-15T04:06:56.069Z,95823
2022-11-15T04:07:56.080Z,95818
2022-11-15T04:11:56.038Z,95812
2022-11-15T04:12:56.153Z,95808
2022-11-15T04:14:56.066Z,95804
2022-11-15T04:15:56.068Z,95804
2022-11-15T04:16:56.069Z,95801
2022-11-15T04:17:56.093Z,95802
2022-11-15T04:18:56.040Z,95802
2022-11-15T04:19:56.073Z,95802
2022-11-15T04:20:56.100Z,95802
2022-11-15T04:21:56.100Z,95803
2022-11-15T04:22:56.072Z,95804
2022-11-15T04:23:56.072Z,95805
2022-11-15T04:24:56.098Z,95803
2022-11-15T04:25:56.117Z,95807
2022-11-15T04:26:56.106Z,95805
2022-11-15T04:27:56.130Z,95805
2022-11-15T04:28:56.079Z,95805
2022-11-15T04:29:56.069Z,95807
2022-11-15T04:30:56.122Z,95805
2022-11-15T04:31:56.099Z,95805
2022-11-15T04:32:56.124Z,95805
2022-11-15T04:33:56.096Z,95803
2022-11-15T04:34:56.099Z,95799
2022-11-15T04:36:56.102Z,95796
2022-11-15T04:37:56.114Z,95796
2022-11-15T04:38:56.126Z,95797
2022-11-15T04:39:56.110Z,95793
2022-11-15T04:40:56.146Z,95796
2022-11-15T04:41:56.114Z,95792
2022-11-15T04:43:00.835Z,95793
2022-11-15T04:43:56.155Z,95793
2022-11-15T04:44:56.125Z,95796
2022-11-15T04:46:56.145Z,95792
2022-11-15T04:47:56.130Z,95796
2022-11-15T04:48:58.954Z,95793
2022-11-15T04:49:56.117Z,95793
2022-11-15T04:56:56.180Z,95792
2022-11-15T04:57:56.153Z,95792
2022-11-15T04:58:56.204Z,95787
2022-11-15T04:59:56.155Z,95787
2022-11-15T05:00:56.231Z,95788
2022-11-15T05:01:56.175Z,95788
2022-11-15T05:02:56.159Z,95785
2022-11-15T05:03:56.164Z,95783
2022-11-15T05:04:56.181Z,95783
2022-11-15T05:06:56.216Z,95780
2022-11-15T05:09:56.186Z,95774
2022-11-15T05:10:56.218Z,95775
2022-11-15T05:11:56.197Z,95775
2022-11-15T05:12:56.180Z,95773
2022-11-15T05:15:56.213Z,95765
2022-11-15T05:16:56.246Z,95763
2022-11-15T05:17:56.211Z,95763
2022-11-15T05:19:56.216Z,95765
2022-11-15T05:20:56.232Z,95765
2022-11-15T05:22:56.212Z,95763
2022-11-15T05:23:56.217Z,95760
2022-11-15T05:25:56.222Z,95755
2022-11-15T05:26:56.292Z,95755
2022-11-15T05:27:56.237Z,95755
2022-11-15T05:28:56.249Z,95754
2022-11-15T05:30:56.240Z,95752
2022-11-15T05:32:56.261Z,95751
2022-11-15T05:33:56.243Z,95751
2022-11-15T05:34:56.257Z,95746
2022-11-15T05:36:56.256Z,95747
2022-11-15T05:38:56.273Z,95741
2022-11-15T05:40:56.258Z,95736
2022-11-15T05:41:56.281Z,95736
2022-11-15T05:42:56.265Z,95732
2022-11-15T05:43:56.288Z,95737
2022-11-15T05:44:56.311Z,95740
2022-11-15T05:45:56.288Z,95740
2022-11-15T05:49:56.324Z,95737
2022-11-15T05:50:56.262Z,95737
2022-11-15T05:51:56.344Z,95736
2022-11-15T05:52:58.617Z,95734
2022-11-15T05:53:56.297Z,95734
2022-11-15T05:54:56.322Z,95743
2022-11-15T05:55:56.270Z,95742
2022-11-15T05:56:56.293Z,95740
2022-11-15T05:57:56.313Z,95742
2022-11-15T05:59:56.327Z,95746
2022-11-15T06:00:56.318Z,95746
2022-11-15T06:01:56.394Z,95747
2022-11-15T06:02:56.319Z,95747
2022-11-15T06:06:56.463Z,95743
2022-11-15T06:07:56.323Z,95743
2022-11-15T06:08:56.331Z,95739
2022-11-15T06:09:56.362Z,95738
2022-11-15T06:10:56.328Z,95739
2022-11-15T06:11:56.354Z,95738
2022-11-15T06:12:56.321Z,95737
2022-11-15T06:13:56.334Z,95737
2022-11-15T06:14:56.379Z,95741
2022-11-15T06:15:56.342Z,95741
2022-11-15T06:16:56.353Z,95739
2022-11-15T06:17:56.357Z,95741
2022-11-15T06:18:56.375Z,95741
2022-11-15T06:19:56.351Z,95741
2022-11-15T06:23:56.376Z,95737
2022-11-15T06:24:58.304Z,95739
2022-11-15T06:25:56.404Z,95737
2022-11-15T06:28:56.390Z,95744
2022-11-15T06:29:56.407Z,95740
2022-11-15T06:30:56.412Z,95740
2022-11-15T06:31:56.404Z,95742
2022-11-15T06:32:56.396Z,95739
2022-11-15T06:33:56.414Z,95736
2022-11-15T06:34:56.391Z,95736
2022-11-15T06:35:56.416Z,95736
2022-11-15T06:36:56.411Z,95737
2022-11-15T06:37:56.448Z,95738
2022-11-15T06:38:56.406Z,95733
2022-11-15T06:39:56.421Z,95735
2022-11-15T06:40:56.416Z,95736
2022-11-15T06:41:56.413Z,95736
2022-11-15T06:42:56.447Z,95736
2022-11-15T06:44:56.430Z,95730
2022-11-15T06:45:56.457Z,95731
2022-11-15T06:46:56.428Z,95731
2022-11-15T06:47:56.420Z,95728
2022-11-15T06:48:56.447Z,95728
2022-11-15T06:49:56.424Z,95726
2022-11-15T06:50:56.436Z,95725
2022-11-15T06:51:56.438Z,95725
2022-11-15T06:52:56.438Z,95726
2022-11-15T06:53:56.458Z,95726
2022-11-15T06:54:56.449Z,95732
2022-11-15T06:55:56.483Z,95733
2022-11-15T06:56:56.474Z,95734
2022-11-15T06:57:56.455Z,95734
2022-11-15T06:58:56.457Z,95731
2022-11-15T06:59:56.444Z,95731
2022-11-15T07:01:56.460Z,95736
2022-11-15T07:04:56.485Z,95740
2022-11-15T07:05:56.487Z,95740
2022-11-15T07:06:56.512Z,95736
2022-11-15T07:10:56.469Z,95737
2022-11-15T07:11:56.487Z,95740
2022-11-15T07:12:56.491Z,95739
2022-11-15T07:13:56.505Z,95740
2022-11-15T07:16:56.539Z,95733
2022-11-15T07:17:56.522Z,95733
2022-11-15T07:18:56.541Z,95732
2022-11-15T07:19:56.506Z,95732
2022-11-15T07:21:56.545Z,95737
2022-11-15T07:22:56.520Z,95737
2022-11-15T07:23:56.546Z,95737
2022-11-15T07:24:56.543Z,95737
2022-11-15T07:25:56.512Z,95736
2022-11-15T07:26:56.568Z,95732
2022-11-15T07:27:56.508Z,95732
2022-11-15T07:28:56.569Z,95732
2022-11-15T07:29:56.561Z,95732
2022-11-15T07:30:56.539Z,95733
2022-11-15T07:31:56.569Z,95737
2022-11-15T07:32:56.540Z,95737
2022-11-15T07:33:56.565Z,95736
2022-11-15T07:34:56.580Z,95736
2022-11-15T07:35:56.548Z,95737
2022-11-15T07:36:56.530Z,95741
2022-11-15T07:37:56.555Z,95741
2022-11-15T07:38:56.568Z,95742
2022-11-15T07:39:56.575Z,95743
2022-11-15T07:40:56.595Z,95746
2022-11-15T07:41:56.554Z,95746
2022-11-15T07:42:56.589Z,95745
2022-11-15T07:43:56.561Z,95748
2022-11-15T07:44:56.592Z,95743
2022-11-15T07:45:59.394Z,95742
2022-11-15T07:46:56.567Z,95742
2022-11-15T07:47:56.616Z,95739
2022-11-15T07:48:56.593Z,95744
2022-11-15T07:49:56.627Z,95748
2022-11-15T07:50:56.590Z,95746
2022-11-15T07:51:56.571Z,95746
2022-11-15T07:52:56.615Z,95739
2022-11-15T07:53:56.608Z,95741
2022-11-15T07:54:56.609Z,95734
2022-11-15T07:55:56.612Z,95730
2022-11-15T07:56:56.606Z,95733
2022-11-15T07:57:56.624Z,95730
2022-11-15T07:58:56.596Z,95735
2022-11-15T07:59:56.627Z,95733
2022-11-15T08:00:56.812Z,95733
2022-11-15T08:01:56.754Z,95731
2022-11-15T08:02:56.810Z,95729
2022-11-15T08:03:56.594Z,95729
2022-11-15T08:04:56.658Z,95729
2022-11-15T08:05:56.597Z,95728
2022-11-15T08:06:56.712Z,95731
2022-11-15T08:07:56.677Z,95729
2022-11-15T08:08:56.620Z,95730
2022-11-15T08:09:56.619Z,95733
2022-11-15T08:10:56.643Z,95733
2022-11-15T08:11:56.632Z,95729
2022-11-15T08:12:56.715Z,95725
2022-11-15T08:13:56.641Z,95728
2022-11-15T08:14:56.632Z,95728
2022-11-15T08:15:57.945Z,95715
2022-11-15T08:16:56.652Z,95718
2022-11-15T08:17:56.656Z,95715
2022-11-15T08:18:56.649Z,95715
2022-11-15T08:19:56.673Z,95705
2022-11-15T08:20:56.702Z,95708
2022-11-15T08:21:56.659Z,95706
2022-11-15T08:22:56.692Z,95706
2022-11-15T08:23:56.674Z,95707
2022-11-15T08:24:56.664Z,95704
2022-11-15T08:25:56.711Z,95705
2022-11-15T08:26:56.674Z,95704
2022-11-15T08:27:56.710Z,95707
2022-11-15T08:28:56.675Z,95708
2022-11-15T08:29:59.445Z,95708
2022-11-15T08:30:56.679Z,95710
2022-11-15T08:31:56.697Z,95721
2022-11-15T08:32:56.718Z,95713
2022-11-15T08:33:56.691Z,95711
2022-11-15T08:34:56.705Z,95713
2022-11-15T08:35:56.738Z,95705
2022-11-15T08:36:56.717Z,95704
2022-11-15T08:37:56.730Z,95701
2022-11-15T08:38:56.709Z,95705
2022-11-15T08:39:56.703Z,95705
2022-11-15T08:40:56.772Z,95706
2022-11-15T08:41:56.710Z,95706
2022-11-15T08:42:56.759Z,95701
2022-11-15T08:43:56.743Z,95700
2022-11-15T08:44:56.714Z,95702
2022-11-15T08:46:56.755Z,95699
2022-11-15T08:47:56.757Z,95700
2022-11-15T08:48:56.727Z,95700
2022-11-15T08:49:56.747Z,95707
2022-11-15T08:50:56.781Z,95699
2022-11-15T08:51:56.749Z,95703
2022-11-15T08:52:56.729Z,95703
2022-11-15T08:53:56.750Z,95704
2022-11-15T08:54:56.760Z,95704
2022-11-15T08:55:56.778Z,95708
2022-11-15T08:56:56.755Z,95713
2022-11-15T08:57:56.767Z,95715
2022-11-15T08:58:56.761Z,95716
2022-11-15T08:59:56.767Z,95716
2022-11-15T09:00:56.798Z,95712
2022-11-15T09:01:56.774Z,95712
2022-11-15T09:02:56.782Z,95710
2022-11-15T09:03:56.808Z,95711
2022-11-15T09:04:56.771Z,95711
2022-11-15T09:05:56.765Z,95712
2022-11-15T09:06:56.807Z,95710
2022-11-15T09:07:56.780Z,95711
2022-11-15T09:08:56.799Z,95716
2022-11-15T09:09:56.784Z,95716
2022-11-15T09:10:56.836Z,95714
2022-11-15T09:12:01.166Z,95713
2022-11-15T09:12:56.779Z,95713
2022-11-15T09:13:56.793Z,95708
2022-11-15T09:14:56.789Z,95710
2022-11-15T09:15:56.837Z,95710
2022-11-15T09:16:56.800Z,95710
2022-11-15T09:17:56.822Z,95710
2022-11-15T09:18:56.807Z,95714
2022-11-15T09:19:56.811Z,95714
2022-11-15T09:20:56.851Z,95713
2022-11-15T09:21:56.813Z,95708
2022-11-15T09:22:56.795Z,95708
2022-11-15T09:23:56.839Z,95712
2022-11-15T09:24:56.844Z,95711
2022-11-15T09:25:56.883Z,95711
2022-11-15T09:26:56.827Z,95711
2022-11-15T09:27:56.839Z,95708
2022-11-15T09:28:56.863Z,95709
2022-11-15T09:29:56.825Z,95710
2022-11-15T09:30:56.859Z,95714
2022-11-15T09:31:56.832Z,95708
2022-11-15T09:32:56.844Z,95709
2022-11-15T09:33:56.907Z,95711
2022-11-15T09:34:56.847Z,95711
2022-11-15T09:35:56.850Z,95708
2022-11-15T09:36:56.881Z,95708
2022-11-15T09:37:56.855Z,95709
2022-11-15T09:38:56.866Z,95704
2022-11-15T09:39:56.854Z,95709
2022-11-15T09:40:56.869Z,95709
2022-11-15T09:41:56.903Z,95711
2022-11-15T09:42:56.885Z,95714
2022-11-15T09:43:56.883Z,95712
2022-11-15T09:44:56.913Z,95715
2022-11-15T09:45:56.846Z,95715
2022-11-15T09:46:56.911Z,95716
2022-11-15T09:48:56.918Z,95717
2022-11-15T09:49:58.090Z,95715
2022-11-15T09:51:56.925Z,95715
2022-11-15T09:52:56.891Z,95718
2022-11-15T09:54:37.366Z,95713
2022-11-15T09:55:56.897Z,95715
2022-11-15T09:56:56.909Z,95711
2022-11-15T09:58:56.889Z,95710
2022-11-15T09:59:56.936Z,95704
2022-11-15T10:00:56.933Z,95704
2022-11-15T10:02:57.005Z,95703
2022-11-15T10:03:56.900Z,95703
2022-11-15T10:04:57.018Z,95699
2022-11-15T10:05:56.916Z,95699
2022-11-15T10:06:56.937Z,95697
2022-11-15T10:07:56.973Z,95695
2022-11-15T10:08:56.914Z,95695
2022-11-15T10:09:56.946Z,95692
2022-11-15T10:11:15.830Z,95692
2022-11-15T10:11:56.955Z,95685
2022-11-15T10:12:56.981Z,95684
2022-11-15T10:13:56.957Z,95684
2022-11-15T10:14:56.989Z,95684
2022-11-15T10:15:56.963Z,95684
2022-11-15T10:16:56.940Z,95681
2022-11-15T10:17:56.999Z,95678
2022-11-15T10:19:59.662Z,95676
2022-11-15T10:20:56.969Z,95671
2022-11-15T10:21:56.981Z,95671
2022-11-15T10:22:57.023Z,95673
2022-11-15T10:23:56.963Z,95669
2022-11-15T10:25:58.401Z,95670
2022-11-15T10:26:56.981Z,95668
2022-11-15T10:27:56.996Z,95669
2022-11-15T10:28:56.970Z,95672
2022-11-15T10:29:56.987Z,95672
2022-11-15T10:30:57.005Z,95671
2022-11-15T10:31:56.989Z,95672
2022-11-15T10:32:57.006Z,95672
2022-11-15T10:33:56.976Z,95674
2022-11-15T10:34:57.039Z,95674
2022-11-15T10:35:57.114Z,95672
2022-11-15T10:36:56.979Z,95672
2022-11-15T10:37:57.004Z,95672
2022-11-15T10:38:56.989Z,95673
2022-11-15T10:39:57.013Z,95673
2022-11-15T10:41:57.025Z,95672
2022-11-15T10:42:57.007Z,95673
2022-11-15T10:43:57.032Z,95670
2022-11-15T10:44:57.033Z,95669
2022-11-15T10:45:57.072Z,95672
2022-11-15T10:46:57.048Z,95666
2022-11-15T10:47:57.009Z,95666
2022-11-15T10:48:57.055Z,95660
2022-11-15T10:50:57.033Z,95656
2022-11-15T10:51:57.073Z,95657
2022-11-15T10:53:57.070Z,95655
2022-11-15T10:54:57.050Z,95654
2022-11-15T10:55:57.060Z,95658
2022-11-15T10:56:57.126Z,95658
2022-11-15T10:57:57.059Z,95658
2022-11-15T10:58:57.059Z,95653
2022-11-15T10:59:57.073Z,95655
2022-11-15T11:02:57.067Z,95655
2022-11-15T11:03:57.118Z,95655
2022-11-15T11:04:57.064Z,95652
2022-11-15T11:06:57.192Z,95647
2022-11-15T11:07:57.090Z,95643
2022-11-15T11:08:57.139Z,95645
2022-11-15T11:09:57.083Z,95644
2022-11-15T11:11:01.950Z,95644
2022-11-15T11:11:57.108Z,95636
2022-11-15T11:12:57.136Z,95629
2022-11-15T11:13:57.097Z,95626
2022-11-15T11:14:57.133Z,95622
2022-11-15T11:15:57.079Z,95614
2022-11-15T11:16:57.173Z,95612
2022-11-15T11:17:57.110Z,95608
2022-11-15T11:18:57.101Z,95599
2022-11-15T11:19:57.143Z,95599
2022-11-15T11:20:57.131Z,95597
2022-11-15T11:21:57.131Z,95598
2022-11-15T11:22:57.138Z,95601
2022-11-15T11:23:57.142Z,95605
2022-11-15T11:24:57.154Z,95600
2022-11-15T11:25:57.114Z,95600
2022-11-15T11:26:57.435Z,95597
2022-11-15T11:27:57.114Z,95596
2022-11-15T11:28:57.124Z,95593
2022-11-15T11:29:57.185Z,95587
2022-11-15T11:30:57.147Z,95584
2022-11-15T11:31:57.172Z,95585
2022-11-15T11:32:57.152Z,95586
2022-11-15T11:33:57.158Z,95585
2022-11-15T11:34:57.173Z,95585
2022-11-15T11:35:57.146Z,95585
2022-11-15T11:36:57.145Z,95588
2022-11-15T11:37:57.149Z,95579
2022-11-15T11:38:57.151Z,95578
2022-11-15T11:39:57.174Z,95570
2022-11-15T11:40:57.156Z,95570
2022-11-15T11:41:57.162Z,95556
2022-11-15T11:42:57.192Z,95547
2022-11-15T11:43:57.203Z,95542
2022-11-15T11:44:57.221Z,95536
2022-11-15T11:45:57.167Z,95536
2022-11-15T11:46:57.164Z,95536
2022-11-15T11:47:57.207Z,95539
2022-11-15T11:48:57.193Z,95540
2022-11-15T11:49:57.170Z,95538
2022-11-15T11:50:57.171Z,95538
2022-11-15T11:51:57.167Z,95541
2022-11-15T11:53:02.368Z,95542
2022-11-15T11:53:57.204Z,95543
2022-11-15T11:54:57.236Z,95543
2022-11-15T11:57:57.212Z,95532
2022-11-15T11:58:57.195Z,95529
2022-11-15T11:59:57.231Z,95530
2022-11-15T12:00:57.220Z,95530
2022-11-15T12:01:57.356Z,95525
2022-11-15T12:02:57.389Z,95524
2022-11-15T12:03:57.192Z,95524
2022-11-15T12:04:57.254Z,95512
2022-11-15T12:05:57.220Z,95512
2022-11-15T12:06:57.295Z,95509
2022-11-15T12:08:00.730Z,95510
2022-11-15T12:08:57.224Z,95510
2022-11-15T12:09:57.211Z,95512
2022-11-15T12:10:57.235Z,95509
2022-11-15T12:11:57.246Z,95516
2022-11-15T12:12:57.224Z,95515
2022-11-15T12:14:57.258Z,95518
2022-11-15T12:15:57.283Z,95520
2022-11-15T12:16:57.249Z,95519
2022-11-15T12:17:57.281Z,95519
2022-11-15T12:18:57.251Z,95519
2022-11-15T12:19:57.254Z,95518
2022-11-15T12:20:57.309Z,95521
2022-11-15T12:21:57.253Z,95521
2022-11-15T12:22:57.262Z,95522
2022-11-15T12:23:57.257Z,95514
2022-11-15T12:24:57.261Z,95514
2022-11-15T12:25:57.302Z,95514
2022-11-15T12:26:57.309Z,95510
2022-11-15T12:27:57.413Z,95507
2022-11-15T12:29:06.333Z,95506
2022-11-15T12:29:57.282Z,95501
2022-11-15T12:30:58.458Z,95500
2022-11-15T12:33:57.374Z,95497
2022-11-15T12:34:57.289Z,95497
2022-11-15T12:35:57.345Z,95498
2022-11-15T12:36:57.311Z,95499
2022-11-15T12:41:57.335Z,95501
2022-11-15T12:42:57.318Z,95497
2022-11-15T12:43:57.351Z,95496
2022-11-15T12:44:57.427Z,95488
2022-11-15T12:45:57.377Z,95484
2022-11-15T12:46:57.345Z,95486
2022-11-15T12:47:57.312Z,95486
2022-11-15T12:48:57.367Z,95481
2022-11-15T12:49:57.324Z,95481
2022-11-15T12:50:57.380Z,95475
2022-11-15T12:51:57.322Z,95474
2022-11-15T12:52:57.321Z,95474
2022-11-15T12:53:57.368Z,95465
2022-11-15T12:54:57.362Z,95468
2022-11-15T12:55:57.383Z,95465
2022-11-15T12:56:57.337Z,95465
2022-11-15T12:57:57.338Z,95461
2022-11-15T12:58:57.375Z,95463
2022-11-15T12:59:57.359Z,95463
2022-11-15T13:00:57.435Z,95458
2022-11-15T13:01:57.356Z,95463
2022-11-15T13:02:57.388Z,95463
2022-11-15T13:03:57.388Z,95464
2022-11-15T13:04:57.367Z,95461
2022-11-15T13:05:57.423Z,95455
2022-11-15T13:06:57.412Z,95455
2022-11-15T13:07:57.385Z,95456
2022-11-15T13:09:57.367Z,95451
2022-11-15T13:10:57.394Z,95447
2022-11-15T13:11:57.391Z,95451
2022-11-15T13:12:57.379Z,95451
2022-11-15T13:13:57.411Z,95440
2022-11-15T13:14:57.452Z,95439
2022-11-15T13:15:57.430Z,95441
2022-11-15T13:16:57.400Z,95440
2022-11-15T13:17:57.447Z,95437
2022-11-15T13:18:57.404Z,95437
2022-11-15T13:19:57.431Z,95434
2022-11-15T13:21:02.143Z,95434
2022-11-15T13:21:57.408Z,95426
2022-11-15T13:22:57.453Z,95426
2022-11-15T13:23:57.427Z,95421
2022-11-15T13:24:57.486Z,95419
2022-11-15T13:25:57.411Z,95414
2022-11-15T13:26:57.409Z,95414
2022-11-15T13:27:57.412Z,95410
2022-11-15T13:28:57.442Z,95410
2022-11-15T13:29:57.475Z,95410
2022-11-15T13:30:57.433Z,95410
2022-11-15T13:31:57.440Z,95407
2022-11-15T13:32:57.478Z,95405
2022-11-15T13:33:57.422Z,95405
2022-11-15T13:34:57.490Z,95403
2022-11-15T13:35:57.460Z,95398
2022-11-15T13:36:57.465Z,95396
2022-11-15T13:37:57.482Z,95395
2022-11-15T13:38:57.438Z,95395
2022-11-15T13:39:57.446Z,95391
2022-11-15T13:40:57.479Z,95387
2022-11-15T13:41:57.440Z,95389
2022-11-15T13:42:57.457Z,95388
2022-11-15T13:43:57.473Z,95388
2022-11-15T13:44:57.508Z,95385
2022-11-15T13:45:57.468Z,95385
2022-11-15T13:46:57.500Z,95383
2022-11-15T13:47:57.518Z,95384
2022-11-15T13:48:57.501Z,95380
2022-11-15T13:51:57.474Z,95375
2022-11-15T13:52:57.536Z,95375
2022-11-15T13:53:57.484Z,95370
2022-11-15T13:54:57.597Z,95370
2022-11-15T13:55:57.494Z,95366
2022-11-15T13:56:57.495Z,95363
2022-11-15T13:57:57.528Z,95364
2022-11-15T13:58:57.491Z,95362
2022-11-15T13:59:57.530Z,95364
2022-11-15T14:00:57.520Z,95364
2022-11-15T14:01:57.569Z,95362
2022-11-15T14:03:57.505Z,95364
2022-11-15T14:04:57.520Z,95364
2022-11-15T14:05:57.511Z,95367
2022-11-15T14:06:57.665Z,95364
2022-11-15T14:07:57.539Z,95362
2022-11-15T14:08:57.556Z,95362
2022-11-15T14:09:57.551Z,95366
2022-11-15T14:10:57.530Z,95366
2022-11-15T14:11:57.532Z,95359
2022-11-15T14:12:57.579Z,95363
2022-11-15T14:13:57.529Z,95363
2022-11-15T14:14:57.532Z,95360
2022-11-15T14:15:57.609Z,95362
2022-11-15T14:16:57.535Z,95362
2022-11-15T14:18:57.556Z,95360
2022-11-15T14:19:57.536Z,95363
2022-11-15T14:20:57.611Z,95367
2022-11-15T14:21:57.583Z,95367
2022-11-15T14:22:57.576Z,95364
2022-11-15T14:23:57.567Z,95360
2022-11-15T14:24:57.559Z,95359
2022-11-15T14:25:57.568Z,95351
2022-11-15T14:27:57.568Z,95344
2022-11-15T14:28:57.608Z,95341
2022-11-15T14:29:57.583Z,95346
2022-11-15T14:30:57.603Z,95345
2022-11-15T14:31:57.604Z,95347
2022-11-15T14:32:57.589Z,95345
2022-11-15T14:33:57.608Z,95347
2022-11-15T14:34:57.583Z,95340
2022-11-15T14:35:57.592Z,95340
2022-11-15T14:36:57.627Z,95341
2022-11-15T14:37:57.596Z,95341
2022-11-15T14:38:57.636Z,95331
2022-11-15T14:39:57.598Z,95332